Log In
Gnar Weasels - Kenda Cup #4 • Jul 1 2017
Race uploaded by CrossMgr
Download
Series: KCE2017
Drizzle, 77 degrees, wind 7 mph.
Is there a Strava segment for this course? Paste the url here:

Instagram used to let us search for a hashtag, but now they don't. Bummer! Here's the 'grams you want: #gnarweasels

By Age: All | U20 | 20-29 | 30-39 | 40-49 | 50-59 | 60+ | Custom to
Pl First NameLast NameTeamTime Lap 1 Lap 2 Lap 3
1 Stephen Hyde Cannondale P/B Cyclocrossworld.com 1:33:30 30:41 30:45 32:02
2 Justin Lindine Apex / NBX / Hyperthreads 1:36:27 30:43 32:20 33:22
3 Tom Sampson Vittoria/Yeti Cycles 1:39:40 31:47 33:44 34:08
4 Noah Tautfest Bicycle Express Racing 1:40:12 32:35 33:44 33:53
5 Chris Hamlin Bicycle Express Racing 1:41:42 33:09 34:20 34:12
6 Andy Scott Riverside Racing 1:42:02 33:05 34:21 34:35
7 Christopher Ziegler BMB Racing 1:42:26 33:07 34:16 35:02
8 Matthew Green Bicycle Express Racing 1:45:03 33:59 35:41 35:21
9 Neal Burton Team ERRACE p/b DSO Manufacturing 1:45:26 34:07 35:59 35:19
10 Jacob Robertson Createx/Benidorm 1:47:30 35:02 36:27 36:00
11 Kevin Bouchard-hall Wrenegade Sports/Farm to Fork Fondo 1:47:33 34:33 36:04 36:55
12 Aaron Oakes Wenzel Coaching 1:47:58 35:33 36:51 35:32
13 Andrew Lints Bicycle Express Racing 1:48:16 33:22 38:49 36:04
14 Rick Nelson Bikeman.com 1:48:20 35:36 35:51 36:52
15 Mike Jaworski CCI Racing/Town Cycle 1:49:04 33:58 36:58 38:07
16 Ian Gielar NCC / JAM Fund 1:49:05 35:32 35:54 37:38
17 Gregory Jancaitis Bicycle Express Racing 1:51:06 35:34 37:44 37:47
18 Sam Hedlund eliteendurance.com pro factory 1:54:41 34:04 38:06 42:30
19 Andrew Nicholas RPI 1:55:23 37:01 40:35 37:46
20 Camden Brooks Hands-On Cycling 1:59:50 37:41 41:43 40:25
21 Ezra Tautfest Bicycle Express Racing 1:59:57 37:45 42:01 40:10
22 Eric Follen Colonial Bike
Finishers: Cat 1: 4   Cat 3: 3   Cat 4: 4   Cat 5: 2   Cat ?: 9  
By Age: All | U20 | 20-29 | 30-39 | 40-49 | 50-59 | 60+ | Custom to
Pl First NameLast NameTeamTime Lap 1 Lap 2 Lap 3
1 Crystal Anthony Riverside Racing 1:57:03 37:59 39:06 39:56
2 Vicki Barclay 2:01:26 38:50 41:04 41:31
3 Laura Slavin KTM Factory Racing 2:01:45 38:57 41:15 41:33
4 Tina Severson Orange Seal Cycling 2:03:17 40:01 41:36 41:39
5 Karen Potter Pivot/MTBracenews.com 2:05:02 41:03 41:47 42:10
6 Kimberley Quinlan Bicycle Express Racing 2:06:16 40:21 42:20 43:34
7 Bryna Blanchard BMB Racing 2:06:54 40:58 42:43 43:12
8 Kimberly Milton R-Cubed 2:07:22 41:24 42:41 43:16
9 Kathryn Lawrence B2C2/JRA 2:11:09 41:18 45:14 44:36
10 Alecia Faustini Laurel Bike Club 2:16:15 44:07 45:14 46:53
11 Allison Mrugal Bike Line 2:19:45 43:34 48:09 48:01
12 Lindsey Bauer TRT Bicycles 2:32:32 44:59 53:10 54:21
13 Jordan Dube Craft Factory Racing 2:41:24 48:41 55:52 56:51
14 Erin Faccone B2C2/ JRA Cycles 0:45:48 45:48
Finishers: Cat 2: 2   Cat 3: 3   Cat 4: 1   Cat ?: 8  
By Age: All | U20 | 20-29 | 30-39 | 40-49 | 50-59 | 60+ | Custom to
Pl First NameLast NameTeamTime Lap 1 Lap 2 Lap 3
1 Ben Powers Riverside Racing 1:48:44 34:29 36:24 37:49
2 Finnegan O'connor Competitive Edge Ski & Bike 1:53:02 37:03 37:39 38:19
3 Ethan Farmer Bicycle Express Racing 1:55:55 38:28 39:06 38:20
4 Matt Johnson Riverside Racing 1:56:00 37:24 39:24 39:11
5 Ian O'neil Riverside Racing 1:59:33 37:04 39:47 42:42
6 Christopher Golden Corner Cycle Cycling Club/ AP Junio 2:20:32 42:31 49:25 48:35
7 Eli Weitzman Fullsquish 2:23:27 41:13 50:14 51:58
8 Chris Mehlman B2C2 / JRA 0:45:50 45:50
Finishers: Cat 3: 1   Cat ?: 7  
By Age: All | U20 | 20-29 | 30-39 | 40-49 | 50-59 | 60+ | Custom to
Pl First NameLast NameTeamTime Lap 1 Lap 2 Lap 3
1 Jacob Palmerio Bicycle Express Racing 1:55:43 37:38 38:57 39:07
2 Logan Kasper 1:59:35 38:12 41:24 39:58
3 Adam Lovell Cycle Lodge 2:02:39 40:12 40:53 41:33
4 Tyler Cohen BMB Racing 2:06:42 40:45 42:17 43:39
5 Erik Carlson Aetna-Expo Wheelmen 1:25:37 40:09 45:28
6 Travis Mattison HRRT 0:47:42 47:42
7 Sam Damphousse Barker Mountain Bikes 0:52:35 52:35
8 Taylor Wetherby U.S. Pillow Kicking Team 0:56:03 56:03
Finishers: Cat 3: 1   Cat 4: 2   Cat 5: 2   Cat ?: 3  
By Age: All | U20 | 20-29 | 30-39 | 40-49 | 50-59 | 60+ | Custom to
Pl First NameLast NameTeamTime Lap 1 Lap 2 Lap 3
1 Simon Castonguay 1:49:01 35:25 36:15 37:20
2 Breeze Keller Wheels and Waves 1:51:24 35:12 37:29 38:42
3 Steven Shive Aetna-Expo 1:56:19 37:27 39:31 39:21
4 Peter Scannell 1:57:43 37:40 39:34 40:29
5 Benjamin Sawyer riverside 1:59:56 38:49 40:29 40:37
6 Scott Yarosh JAM / NCC 2:00:34 39:45 39:45 41:03
7 Martin Schleede Bike Brothers 2:03:14 39:28 40:40 43:05
8 Andrew Thompson 2:06:01 39:23 41:36 45:01
9 Josh Anthony Riverside Racing 1:21:27 37:41 43:45
10 Shane Black-macken HUP United 0:44:08 44:08
Finishers: Cat 2: 1   Cat 4: 1   Cat 5: 1   Cat ?: 7  
By Age: All | U20 | 20-29 | 30-39 | 40-49 | 50-59 | 60+ | Custom to
Pl First NameLast NameTeamTime Lap 1 Lap 2 Lap 3
1 Richard Wolter Clockwork Construction Inc./Town Cy 1:51:19 36:05 36:52 38:21
2 Vincent Audet 1:53:06 37:22 37:58 37:45
3 Ernest Tautkus CVC / Hartford Healthcare Sports Me 1:56:23 37:15 39:10 39:57
4 Matt Boobar Cannondale/Rhino 1:57:47 37:46 39:34 40:26
5 Richard Tortorici iii R-Cubed 1:59:12 38:40 39:48 40:43
6 Matt Germon Bicycle Express Racing 2:00:28 37:48 40:18 42:21
7 Jon Rowe North American Velo 2:03:40 41:11 41:29 40:59
8 Ben Norris Bicycle Express Racing 2:03:52 40:32 42:29 40:50
9 Kevin Killay PMBR 2:16:30 43:08 45:49 47:32
10 Donald Snoop jr. Craft Factory Racing/ Pedro's 1:26:50 41:20 45:29
11 R. michael Mckittrick pedalpowertraining.com 0:41:25 41:25
12 Mike Shields State 9 Racing p/b Vittoria 0:43:43 43:43
13 Geoffrey Mcdonough 1:04:30 1:04:30
Finishers: Cat 1: 1   Cat 2: 1   Cat 3: 1   Cat 4: 2   Cat ?: 8  
By Age: All | U20 | 20-29 | 30-39 | 40-49 | 50-59 | 60+ | Custom to
Pl First NameLast NameTeamTime Lap 1 Lap 2 Lap 3
1 Torben Berwald CycleLoft 1:57:15 38:03 39:55 39:16
2 Samuel Morse Corner Cycle 2:01:55 37:25 39:46 44:43
3 John Golden Blue Hills Cycling Club 2:05:23 40:45 42:05 42:32
4 Colin Johannen BIKEMAN.COM 2:06:00 41:15 41:45 42:58
5 Steve Arsonault 2:14:25 41:28 44:48 48:09
6 Alexis Arapoff 2:14:27 42:23 44:53 47:10
7 Thierry Blanchet 2:15:38 45:58 45:22 44:17
8 Derek Griggs Recycled Sports 2:17:15 42:44 46:03 48:27
9 Phil Lucey 2:27:05 43:01 48:00 56:03
Finishers: Cat 3: 1   Cat 4: 1   Cat 5: 1   Cat ?: 6  
By Age: All | U20 | 20-29 | 30-39 | 40-49 | 50-59 | 60+ | Custom to
Pl First NameLast NameTeamTime Lap 1 Lap 2
1 Laura Dougherty State 9 Racing p/b Vittoria 1:33:24 46:31 46:53
2 Hazel Brewster Bicycle Express 1:34:39 45:52 48:47
3 Katherine Rusch Rensselaer Polytechnic Institute 1:48:07 52:23 55:43
4 Stephanie Abrell 1:10:53 1:10:53
5 Clio Dinan Stans No-Tubes 1:15:49 1:15:49
Finishers: Cat 1: 1   Cat 3: 1   Cat 4: 1   Cat ?: 2  
By Age: All | U20 | 20-29 | 30-39 | 40-49 | 50-59 | 60+ | Custom to
Pl First NameLast NameTeamTime Lap 1 Lap 2
1 Amy Caldwell West Hill / Caldwell Sport 1:45:42 52:02 53:40
2 Sharon Sloan B2C2/JRA Cycles 1:57:34 55:13 1:02:20
Finishers: Cat 4: 1   Cat ?: 1  
By Age: All | U20 | 20-29 | 30-39 | 40-49 | 50-59 | 60+ | Custom to
Pl First NameLast NameTeamTime Lap 1
1 Keenan Segenchuk New England Devo p/b Cadence Wealth 0:43:05 43:05
2 Parker Welch 0:51:32 51:32
3 Kari Trotter 0:52:28 52:28
4 Timothy Golden Corner Cycle Cycling Club/ AP Junio 0:57:49 57:49
Finishers: Cat 5: 1   Cat ?: 3  
By Age: All | U20 | 20-29 | 30-39 | 40-49 | 50-59 | 60+ | Custom to
Pl First NameLast NameTeamTime Lap 1
1 Margaret Lane 1:22:26 1:22:26
Finishers: Cat ?: 1  
By Age: All | U20 | 20-29 | 30-39 | 40-49 | 50-59 | 60+ | Custom to
Pl First NameLast NameTeamTime Lap 1
1 Zackery Robinette Berkshire Bike And Board 0:45:39 45:39
2 James Laughlin 0:48:50 48:50
Finishers: Cat ?: 2  
By Age: All | U20 | 20-29 | 30-39 | 40-49 | 50-59 | 60+ | Custom to
Pl First NameLast NameTeamTime Lap 1
1 Joshua Calvi Team Bikes+Life 0:47:23 47:23
2 Andrew Huff GPM Racing 0:49:08 49:08
3 Adam Crossman 1:35:25 1:35:25
Finishers: Cat 5: 1   Cat ?: 2  
By Age: All | U20 | 20-29 | 30-39 | 40-49 | 50-59 | 60+ | Custom to
Pl First NameLast NameTeamTime Lap 1
1 Zak Gourley 0:46:45 46:45
2 David Lafond State 9 Racing p/b Vittoria 0:50:28 50:28
3 Aaron Day 0:53:12 53:12
4 Richard Whittaker 0:55:45 55:45
5 Clark Miranda 0:56:14 56:14
Finishers: Cat ?: 5  
By Age: All | U20 | 20-29 | 30-39 | 40-49 | 50-59 | 60+ | Custom to
Pl First NameLast NameTeamTime Lap 1
1 Jeffrey Corning R-Cubed 0:43:48 43:48
2 Paul Mehlman 0:49:14 49:14
3 Douglas Laughlin 0:54:25 54:25
4 Jeff O'neil 0:58:03 58:03
Finishers: Cat ?: 4  
By Age: All | U20 | 20-29 | 30-39 | 40-49 | 50-59 | 60+ | Custom to
Pl First NameLast NameTeamTime Lap 1
1 Elaine Woodward Sea sports 1:17:22 1:17:22
Finishers: Cat ?: 1  
By Age: All | U20 | 20-29 | 30-39 | 40-49 | 50-59 | 60+ | Custom to
Pl First NameLast NameTeamTime Lap 1 Lap 2 Lap 3
1 Brian White R cubed 1:55:54 37:03 38:53 39:57
2 Jesse Quagliaroli Expo Wheelmen 1:57:54 37:57 40:41 39:15
3 John Skarupa CURE RAGE 2:00:22 38:25 40:44 41:12
4 Paul Simoes bikeman.com 2:02:44 38:34 41:13 42:56
5 Steve Segenchuk New England Devo p/b Cadence Wealth 2:05:17 38:51 42:47 43:38
6 Jordan Lynn Team ERRACE p/b DSO Manufacturing 2:26:56 43:05 51:49 52:01
7 Jason Selwitz 2:41:50 50:44 56:23 54:42
8 Brendan Mahoney G.S. La Chiocciola
Finishers: Cat 2: 1   Cat 4: 2   Cat 5: 2   Cat ?: 3  
By Age: All | U20 | 20-29 | 30-39 | 40-49 | 50-59 | 60+ | Custom to
Pl First NameLast NameTeamTime Lap 1 Lap 2
1 Jonathan Mauterer Real Pickles Racing 1:22:43 40:42 42:01
2 Joseph Re NEMBA Racing 1:23:26 40:39 42:47
3 Colby Lake RAD AND GNAR / My Hero Fund 1:38:35 46:03 52:32
Finishers: Cat ?: 3  
By Age: All | U20 | 20-29 | 30-39 | 40-49 | 50-59 | 60+ | Custom to
Pl First NameLast NameTeamTime Lap 1 Lap 2
1 Ben Ogden 1:07:46 33:27 34:19
2 Finnegan Sweet 1:10:55 34:10 36:45
3 Peter Meyer Seacoast Velo Racing 1:21:48 38:31 43:16
4 Asa Chalmers 1:22:46 39:45 43:00
5 David Sandoval BMB Racing 1:29:14 40:55 48:19
6 Gavin O'neil Riverside Racing 1:32:02 42:36 49:26
7 Liam Foley 1:38:09 48:00 50:08
8 Maurice Day 1:40:16 47:18 52:58
9 Jack Willard 1:42:51 49:17 53:33
Finishers: Cat 4: 1   Cat ?: 8  
By Age: All | U20 | 20-29 | 30-39 | 40-49 | 50-59 | 60+ | Custom to
Pl First NameLast NameTeamTime Lap 1 Lap 2
1 Greta Kilburn 1:35:57 51:33 44:23
2 Sara Spencer Claremont Cycle Depot 1:51:52 58:26 53:26
3 Lauren Powers 1:53:21 58:07 55:13
4 Meg Davis Craft Factory Racing 2:08:01 1:04:02 1:03:58
5 Aeryn Northway Cheshire Stealth Ninja Chipmunks 1:14:13 1:14:13
6 Sarah Gibertoni Cheshire Cycle Racing 1:14:14 1:14:14
Finishers: Cat ?: 6  
By Age: All | U20 | 20-29 | 30-39 | 40-49 | 50-59 | 60+ | Custom to
Pl First NameLast NameTeamTime Lap 1 Lap 2 Lap 3
1 Nicholas Hrvatin 1:21:46 38:16 43:29
2 Jacob Van deusen Berkshire bike and board 1:22:40 39:08 43:31
3 Mike Willen 1:28:25 43:16 45:09
4 Fabian Stocek 1:29:10 44:04 45:05
5 George Costanza Vandelay Industries 1:32:45 44:06 48:38
6 David Jaffe Sunapee/Continental Paving/Buchikas 1:33:29 45:38 47:50
7 Dan Mccormack "JRA Cycles 1:40:46 Devinci Cycles Race Face 100%"
8 Charlie Franker 1:46:52 50:54 55:58
9 Jay Holman 2:19:51 1:08:55 1:10:55
10 Scott Mooney 0:34:38 34:38
Finishers: Cat 4: 2   Cat ?: 8  
By Age: All | U20 | 20-29 | 30-39 | 40-49 | 50-59 | 60+ | Custom to
Pl First NameLast NameTeamTime Lap 1 Lap 2
1 Brayton Osgood 1:13:13 35:56 37:17
2 Jonathan Emery State 9 Racing p/b Vittoria 1:13:45 36:25 37:19
3 Dave Levasseur Beam Team/ Monadnock Cycling Club 1:15:01 36:36 38:24
4 Scott Davidson Blue Hills Cycling Club 1:17:38 36:43 40:54
5 Jake Grover West Hill Shop 1:18:39 37:28 41:11
6 Jason Aloisio 1:20:44 36:44 43:59
7 Adam Gould BMB Racing 1:21:13 39:31 41:41
8 Matt Griswold B2C2 / JRA 1:25:20 38:50 46:29
9 Joseph Dickerson Inspired Adventurist/Octagon Cyclin 1:25:33 41:10 44:23
10 Jon Nable CAMELSTACHE!!!!!!!! 1:28:37 41:45 46:51
11 Steven Hall Team SPARK/HopHeadEVENTS 1:33:11 45:30 47:41
12 Scott Benowicz JRA Cycles 1:34:39 43:40 50:59
13 Jake Lowe Class Act Racing 2:16:11 1:06:42 1:09:28
14 Ben Dougherty Bikeman 0:45:55 45:55
Finishers: Cat 3: 1   Cat 4: 2   Cat ?: 11  
By Age: All | U20 | 20-29 | 30-39 | 40-49 | 50-59 | 60+ | Custom to
Pl First NameLast NameTeamTime Lap 1 Lap 2
1 Joseph Sa Blue Hills Cycling Club 1:14:31 35:39 38:52
2 Travis Burleson Blue Hills Cycling Club 1:15:51 36:00 39:51
3 Scott Oosterveen State 9 Racing p/b Vittoria 1:20:44 38:07 42:37
4 Dan Desmarais Scottee's Westport Bicycle 1:21:12 40:26 40:45
5 David Smallwood hup 1:25:06 41:46 43:20
6 Stephen Gibertoni Cheshire Cycle Racing 1:25:57 41:42 44:14
7 William Paredes Blue Hills Cycling Club 1:27:09 41:50 45:19
8 Jd Bilodeau 1:32:35 45:13 47:22
9 Tim Kennedy 1:34:50 41:07 53:43
10 Steve Pacini State 9 Racing p/b Vittoria 1:35:56 45:36 50:20
11 Adrian Clapp 1:37:14 45:15 51:59
12 Chad Willard 1:38:50 45:50 52:59
13 Michael Donovan Team spark 0:51:59 51:59
Finishers: Cat 3: 2   Cat 4: 3   Cat ?: 8  
By Age: All | U20 | 20-29 | 30-39 | 40-49 | 50-59 | 60+ | Custom to
Pl First NameLast NameTeamTime Lap 1 Lap 2
1 Cameron Chalmers 1:18:40 38:08 40:31
2 Donald Kirouac Minuteman Road Club 1:20:27 38:47 41:40
3 Steven Smallwood 1:21:43 39:13 42:29
4 Jean Prevost 1:22:37 40:09 42:27
5 Christopher Scott Riverside Racing 1:24:57 41:41 43:16
6 Don Gonzales 1:25:03 41:43 43:19
7 Ed Perry State 9 Racing p/b Vittoria 1:26:22 41:47 44:35
8 Peter Weitzman Fullsquish 1:27:21 42:07 45:14
9 James Godbey 545 Velo 1:29:03 41:26 47:36
10 Chris Osgood Putney West Hill 1:33:33 45:26 48:07
11 Scott Nolan 1:33:42 45:35 48:07
12 Bill Penon 1:37:18 47:36 49:41
13 Robert Dillon BMB Racing 1:40:41 50:17 50:23
14 Tom Barton Angelina's 1:43:37 48:37 54:59
15 Victor Cillis Cape cod racing 1:47:32 52:30 55:02
16 Jon Northway Cheshire Stealth Ninja Chipmunks 1:52:24 54:37 57:47
Finishers: Cat 3: 1   Cat 4: 4   Cat ?: 11  
By Age: All | U20 | 20-29 | 30-39 | 40-49 | 50-59 | 60+ | Custom to
Pl First NameLast NameTeamTime Lap 1 Lap 2
1 Kim Coleman BMB Racing 1:29:14 43:34 45:40
2 Tania Gregory Colonial Bicycle Company 1:32:56 43:32 49:23
3 Elizabeth Bouchard-hall Woo Girl! 1:45:41 51:47 53:53
4 Kait Kehoe 1:47:26 53:50 53:36
5 Erin Holmes Cowbell Racing p/b World Bicycle 1:47:33 52:19 55:13
6 Paige Williams 1:49:02 52:20 56:41
7 Mary Rogers 2:12:19 1:01:20 1:10:59
8 Lauren Kling 1:01:34 1:01:34
Finishers: Cat 3: 3   Cat ?: 5  
By Age: All | U20 | 20-29 | 30-39 | 40-49 | 50-59 | 60+ | Custom to
Pl First NameLast NameTeamTime Lap 1 Lap 2
1 Sandi Purington Riverside Racing 1:40:12 46:35 53:37
2 Loren Launen 1:47:21 51:59 55:21
3 Christine Beriau Bikeman.com 1:52:39 53:08 59:31
4 Laura Kernan Riverside Racing 1:08:57 1:08:57
Finishers: Cat 3: 1   Cat ?: 3